Aviation Digital Data Service (ADDS)

Output produced by METARs form (0018 UTC 17 July 2019)
found at http://www.aviationweather.gov/metar/data/
 
DIBK 162300Z 18004KT 9999 FEW010 23/23 Q1017 NOSIG
TAF DIBK 162314Z 1700/1724 20007KT 9999 SCT010 
     PROB30 
     TEMPO 1700/1704 4000 RA BKN010 BKN030 
     PROB40 1704/1709 4000 BR BKN010 
     BECMG 1708/1709 BKN011 
     PROB30 
     TEMPO 1716/1721 4000 TSRA BKN010 FEW023CB BKN030
       
DIAP 170000Z 20005KT 9999 SCT012 25/23 Q1015 NOSIG
TAF DIAP 162312Z 1700/1806 22008KT 9999 SCT012 
     PROB40 1704/1709 3000 BR SCT005 BKN010 
     PROB30 
     TEMPO 1800/1806 4000 DZRA BKN010 BKN030
       
DIYO 162200Z 20004KT CAVOK 24/23 Q1015 NOSIG
TAF DIYO 162314Z 1700/1724 21007KT 9999 FEW010 
     PROB40 1704/1709 4000 BR BKN010 
     BECMG 1708/1709 BKN011 
     PROB30 
     TEMPO 1716/1721 4000 TSRA BKN010 FEW020CB BKN030